createdAt,value
2024-03-25T00:00:26.363Z,12.50
2024-03-25T00:03:17.916Z,12.40
2024-03-25T00:05:49.463Z,13.10
2024-03-25T00:08:21.017Z,13.80
2024-03-25T00:10:52.582Z,14.60
2024-03-25T00:13:24.235Z,13.60
2024-03-25T00:15:55.888Z,14.20
2024-03-25T00:18:27.656Z,14.20
2024-03-25T00:23:29.134Z,11.20
2024-03-25T00:26:00.675Z,12.00
2024-03-25T00:28:32.234Z,12.40
2024-03-25T00:31:03.852Z,12.40
2024-03-25T00:33:35.546Z,13.40
2024-03-25T00:36:08.723Z,10.60
2024-03-25T00:38:40.294Z,11.80
2024-03-25T00:41:11.848Z,13.70
2024-03-25T00:43:44.639Z,10.70
2024-03-25T00:46:16.189Z,12.10
2024-03-25T00:48:47.744Z,10.00
2024-03-25T00:51:19.302Z,10.40
2024-03-25T00:53:50.862Z,11.60
2024-03-25T00:56:22.412Z,12.60
2024-03-25T00:58:54.389Z,12.90
2024-03-25T01:01:25.930Z,13.60
2024-03-25T01:03:57.501Z,12.60
2024-03-25T01:06:29.046Z,13.70
2024-03-25T01:09:00.604Z,12.30
2024-03-25T01:11:32.299Z,12.10
2024-03-25T01:14:03.918Z,11.60
2024-03-25T01:16:36.493Z,13.40
2024-03-25T01:19:08.050Z,10.40
2024-03-25T01:21:40.019Z,10.00
2024-03-25T01:24:11.564Z,8.20
2024-03-25T01:26:43.243Z,9.90
2024-03-25T01:29:14.676Z,11.30
2024-03-25T01:31:46.231Z,11.70
2024-03-25T01:34:17.788Z,9.80
2024-03-25T01:36:49.353Z,11.30
2024-03-25T01:39:20.899Z,9.90
2024-03-25T01:44:22.574Z,8.50
2024-03-25T01:46:55.921Z,10.20
2024-03-25T01:49:27.940Z,9.90
2024-03-25T01:52:00.934Z,11.10
2024-03-25T01:54:34.362Z,9.80
2024-03-25T01:57:07.317Z,8.80
2024-03-25T01:59:39.896Z,8.40
2024-03-25T02:02:14.728Z,8.50
2024-03-25T02:04:47.308Z,10.30
2024-03-25T02:07:20.848Z,10.30
2024-03-25T02:09:54.516Z,9.00
2024-03-25T02:12:26.872Z,7.80
2024-03-25T02:15:00.152Z,9.00
2024-03-25T02:17:32.249Z,8.80
2024-03-25T02:20:04.112Z,9.00
2024-03-25T02:22:37.615Z,9.40
2024-03-25T02:25:11.624Z,10.60
2024-03-25T02:27:43.182Z,8.30
2024-03-25T02:30:16.635Z,9.40
2024-03-25T02:32:48.141Z,9.30
2024-03-25T02:35:19.890Z,10.90
2024-03-25T02:37:53.092Z,10.10
2024-03-25T02:40:25.261Z,8.40
2024-03-25T02:42:56.812Z,8.90
2024-03-25T02:45:28.571Z,10.10
2024-03-25T02:50:30.254Z,12.10
2024-03-25T02:53:01.840Z,9.70
2024-03-25T02:55:33.363Z,7.90
2024-03-25T02:58:05.136Z,8.90
2024-03-25T03:03:07.334Z,9.60
2024-03-25T03:05:38.980Z,10.80
2024-03-25T03:08:10.930Z,11.00
2024-03-25T03:10:42.495Z,9.30
2024-03-25T03:13:14.049Z,10.90
2024-03-25T03:15:48.666Z,12.10
2024-03-25T03:18:20.229Z,10.50
2024-03-25T03:20:51.783Z,10.70
2024-03-25T03:23:23.692Z,9.80
2024-03-25T03:25:55.306Z,10.50
2024-03-25T03:28:26.865Z,9.90
2024-03-25T03:30:58.407Z,10.60
2024-03-25T03:33:29.963Z,11.70
2024-03-25T03:36:01.516Z,11.60
2024-03-25T03:38:33.180Z,10.80
2024-03-25T03:41:06.204Z,9.40
2024-03-25T03:43:37.820Z,9.70
2024-03-25T03:46:09.376Z,9.50
2024-03-25T03:48:41.134Z,11.80
2024-03-25T03:51:12.526Z,10.50
2024-03-25T03:53:44.041Z,9.90
2024-03-25T03:56:15.619Z,8.30
2024-03-25T03:58:47.147Z,10.00
2024-03-25T04:01:20.599Z,8.40
2024-03-25T04:03:53.758Z,10.50
2024-03-25T04:06:26.338Z,9.50
2024-03-25T04:08:57.882Z,9.80
2024-03-25T04:11:29.436Z,9.00
2024-03-25T04:14:00.999Z,9.30
2024-03-25T04:16:33.212Z,10.50
2024-03-25T04:19:04.716Z,11.40
2024-03-25T04:21:36.271Z,10.40
2024-03-25T04:24:09.815Z,9.60
2024-03-25T04:26:41.239Z,9.90
2024-03-25T04:29:12.779Z,8.10
2024-03-25T04:31:44.542Z,10.10
2024-03-25T04:36:46.216Z,9.00
2024-03-25T04:39:17.770Z,9.40
2024-03-25T04:41:49.943Z,11.30
2024-03-25T04:44:22.935Z,12.10
2024-03-25T04:46:54.486Z,9.80
2024-03-25T04:49:26.041Z,9.70
2024-03-25T04:51:57.597Z,10.10
2024-03-25T04:54:29.354Z,9.50
2024-03-25T04:57:00.927Z,9.20
2024-03-25T04:59:32.474Z,9.90
2024-03-25T05:02:04.605Z,8.60
2024-03-25T05:04:36.396Z,9.00
2024-03-25T05:09:38.071Z,8.40
2024-03-25T05:12:10.381Z,9.10
2024-03-25T05:14:41.793Z,8.80
2024-03-25T05:17:13.350Z,10.50
2024-03-25T05:19:44.906Z,9.50
2024-03-25T05:22:16.464Z,8.20
2024-03-25T05:24:47.745Z,8.90
2024-03-25T05:27:19.169Z,7.70
2024-03-25T05:29:51.125Z,9.90
2024-03-25T05:32:23.137Z,10.70
2024-03-25T05:34:55.071Z,7.60
2024-03-25T05:37:26.818Z,9.30
2024-03-25T05:42:28.297Z,8.00
2024-03-25T05:45:01.274Z,9.30
2024-03-25T05:47:32.829Z,9.40
2024-03-25T05:50:06.481Z,10.10
2024-03-25T05:52:37.992Z,12.50
2024-03-25T05:55:11.099Z,10.70
2024-03-25T05:57:42.533Z,9.30
2024-03-25T06:00:16.564Z,9.00
2024-03-25T06:02:48.521Z,9.10
2024-03-25T06:05:20.068Z,12.20
2024-03-25T06:07:51.621Z,9.90
2024-03-25T06:12:54.537Z,9.70
2024-03-25T06:15:26.508Z,9.40
2024-03-25T06:17:58.256Z,8.60
2024-03-25T06:20:29.809Z,9.10
2024-03-25T06:23:02.611Z,11.00
2024-03-25T06:25:34.764Z,9.40
2024-03-25T06:28:08.067Z,9.30
2024-03-25T06:30:57.535Z,8.30
2024-03-25T06:33:46.912Z,9.30
2024-03-25T06:36:19.822Z,10.10
2024-03-25T06:38:51.654Z,10.40
2024-03-25T06:41:23.221Z,8.80
2024-03-25T06:43:54.772Z,9.50
2024-03-25T06:46:26.316Z,10.30
2024-03-25T06:48:57.876Z,11.40
2024-03-25T06:51:30.044Z,9.40
2024-03-25T06:54:03.239Z,7.30
2024-03-25T06:56:34.802Z,9.10
2024-03-25T06:59:06.384Z,9.70
2024-03-25T07:01:37.902Z,9.90
2024-03-25T07:04:09.667Z,10.70
2024-03-25T07:06:42.447Z,9.50
2024-03-25T07:09:15.630Z,10.10
2024-03-25T07:11:48.578Z,9.30
2024-03-25T07:14:20.607Z,9.60
2024-03-25T07:16:52.152Z,8.70
2024-03-25T07:19:23.644Z,8.60
2024-03-25T07:21:55.260Z,9.30
2024-03-25T07:24:26.817Z,8.30
2024-03-25T07:26:58.367Z,9.20
2024-03-25T07:29:30.539Z,8.30
2024-03-25T07:32:01.889Z,7.60
2024-03-25T07:34:33.616Z,8.40
2024-03-25T07:37:05.923Z,9.60
2024-03-25T07:39:37.373Z,8.40
2024-03-25T07:42:09.440Z,8.10
2024-03-25T07:44:40.892Z,7.20
2024-03-25T07:47:12.538Z,7.60
2024-03-25T07:49:44.014Z,9.00
2024-03-25T07:52:16.120Z,6.30
2024-03-25T07:54:48.553Z,7.40
2024-03-25T07:57:20.821Z,6.50
2024-03-25T07:59:52.694Z,6.80
2024-03-25T08:02:24.241Z,7.70
2024-03-25T08:04:56.410Z,7.10
2024-03-25T08:07:27.969Z,6.60
2024-03-25T08:09:59.718Z,7.50
2024-03-25T08:12:31.479Z,6.20
2024-03-25T08:15:03.059Z,9.40
2024-03-25T08:17:34.941Z,6.20
2024-03-25T08:20:09.524Z,6.10
2024-03-25T08:22:40.981Z,4.90
2024-03-25T08:25:13.214Z,6.30
2024-03-25T08:27:44.700Z,6.60
2024-03-25T08:30:16.970Z,4.90
2024-03-25T08:32:48.428Z,4.60
2024-03-25T08:35:19.980Z,4.20
2024-03-25T08:40:21.863Z,6.10
2024-03-25T08:42:53.713Z,5.30
2024-03-25T08:45:25.434Z,6.70
2024-03-25T08:50:27.058Z,5.60
2024-03-25T08:55:29.965Z,6.80
2024-03-25T08:58:01.521Z,6.30
2024-03-25T09:00:33.282Z,7.80
2024-03-25T09:05:37.307Z,7.90
2024-03-25T09:08:12.897Z,7.90
2024-03-25T09:11:08.801Z,11.10
2024-03-25T09:13:40.549Z,8.80
2024-03-25T09:16:12.510Z,9.20
2024-03-25T09:18:44.073Z,7.20
2024-03-25T09:21:15.827Z,6.00
2024-03-25T09:23:47.380Z,7.40
2024-03-25T09:26:19.002Z,7.10
2024-03-25T09:31:20.614Z,8.80
2024-03-25T09:33:52.169Z,7.00
2024-03-25T09:36:23.727Z,6.10
2024-03-25T09:38:56.969Z,5.80
2024-03-25T09:41:30.950Z,6.20
2024-03-25T09:44:05.357Z,7.20
2024-03-25T09:46:38.561Z,6.80
2024-03-25T09:49:11.130Z,6.90
2024-03-25T09:51:42.684Z,5.60
2024-03-25T09:54:14.443Z,5.30
2024-03-25T09:59:18.142Z,5.40
2024-03-25T10:01:49.759Z,6.00
2024-03-25T10:06:52.284Z,13.40
2024-03-25T10:09:24.487Z,5.40
2024-03-25T10:11:55.963Z,6.10
2024-03-25T10:19:29.188Z,4.90
2024-03-25T10:22:07.221Z,4.80
2024-03-25T10:24:43.755Z,6.10
2024-03-25T10:27:21.880Z,7.60
2024-03-25T10:29:56.889Z,7.30
2024-03-25T10:32:30.141Z,13.20
2024-03-25T10:35:02.317Z,10.40
2024-03-25T10:37:35.597Z,25.20
2024-03-25T10:40:13.977Z,9.70
2024-03-25T10:42:49.981Z,7.50
2024-03-25T10:45:22.415Z,5.10
2024-03-25T10:47:53.964Z,7.90
2024-03-25T10:50:31.304Z,6.90
2024-03-25T10:53:04.673Z,10.70
2024-03-25T10:55:39.912Z,8.80
2024-03-25T10:58:12.432Z,6.40
2024-03-25T11:00:45.581Z,6.30
2024-03-25T11:03:17.894Z,6.80
2024-03-25T11:05:49.616Z,7.60
2024-03-25T11:08:22.495Z,6.60
2024-03-25T11:10:54.152Z,6.50
2024-03-25T11:13:25.700Z,5.30
2024-03-25T11:16:00.098Z,7.80
2024-03-25T11:18:35.092Z,6.50
2024-03-25T11:21:11.027Z,6.40
2024-03-25T11:23:46.262Z,5.40
2024-03-25T11:26:27.441Z,5.00
2024-03-25T11:28:58.997Z,5.30
2024-03-25T11:31:34.177Z,5.60
2024-03-25T11:34:09.379Z,7.60
2024-03-25T11:36:41.650Z,5.20
2024-03-25T11:39:14.369Z,5.90
2024-03-25T11:41:47.217Z,6.20
2024-03-25T11:44:20.823Z,7.10
2024-03-25T11:46:54.843Z,6.20
2024-03-25T11:49:27.194Z,7.90
2024-03-25T11:52:01.422Z,5.60
2024-03-25T11:54:32.984Z,6.20
2024-03-25T11:57:05.089Z,8.70
2024-03-25T11:59:36.919Z,6.70
2024-03-25T12:02:10.802Z,7.00
2024-03-25T12:04:46.233Z,6.20
2024-03-25T12:07:18.542Z,7.10
2024-03-25T12:10:08.324Z,6.10
2024-03-25T12:12:40.494Z,6.60
2024-03-25T12:15:12.621Z,5.90
2024-03-25T12:17:44.091Z,6.70
2024-03-25T12:22:47.564Z,7.60
2024-03-25T12:25:23.387Z,7.90
2024-03-25T12:27:54.676Z,7.90
2024-03-25T12:30:26.323Z,8.30
2024-03-25T12:32:59.296Z,6.90
2024-03-25T12:35:37.394Z,5.50
2024-03-25T12:38:09.152Z,3.70
2024-03-25T12:40:40.715Z,3.70
2024-03-25T12:43:22.347Z,4.20
2024-03-25T12:45:59.769Z,4.50
2024-03-25T12:48:33.191Z,6.10
2024-03-25T12:51:05.988Z,6.60
2024-03-25T12:53:37.532Z,5.30
2024-03-25T12:56:10.127Z,7.10
2024-03-25T12:58:41.669Z,7.80
2024-03-25T13:01:13.639Z,6.30
2024-03-25T13:03:45.195Z,6.60
2024-03-25T13:06:16.743Z,7.20
2024-03-25T13:11:18.434Z,15.60
2024-03-25T13:13:49.975Z,8.60
2024-03-25T13:16:21.526Z,6.40
2024-03-25T13:18:53.079Z,8.70
2024-03-25T13:21:26.717Z,7.00
2024-03-25T13:23:58.241Z,6.60
2024-03-25T13:29:00.019Z,6.50
2024-03-25T13:31:32.909Z,5.50
2024-03-25T13:34:04.664Z,5.80
2024-03-25T13:36:36.607Z,7.70
2024-03-25T13:39:09.749Z,13.20
2024-03-25T13:41:41.787Z,10.90
2024-03-25T13:44:13.344Z,9.70
2024-03-25T13:49:16.457Z,8.30
2024-03-25T13:51:48.662Z,5.70
2024-03-25T13:54:20.180Z,5.70
2024-03-25T13:59:22.083Z,6.40
2024-03-25T14:01:55.258Z,4.90
2024-03-25T14:04:28.040Z,4.50
2024-03-25T14:06:59.597Z,5.10
2024-03-25T14:12:02.301Z,4.40
2024-03-25T14:14:33.855Z,7.50
2024-03-25T14:19:35.533Z,7.70
2024-03-25T14:22:07.084Z,8.30
2024-03-25T14:24:38.641Z,6.20
2024-03-25T14:27:10.399Z,6.60
2024-03-25T14:29:41.963Z,6.60
2024-03-25T14:32:13.514Z,8.20
2024-03-25T14:34:45.683Z,5.50
2024-03-25T14:37:18.269Z,7.00
2024-03-25T14:39:50.446Z,7.80
2024-03-25T14:42:21.994Z,6.70
2024-03-25T14:44:53.546Z,31.90
2024-03-25T14:47:25.144Z,31.00
2024-03-25T14:49:56.654Z,55.70
2024-03-25T14:52:28.212Z,13.70
2024-03-25T14:55:03.468Z,7.80
2024-03-25T14:57:35.219Z,5.60
2024-03-25T15:00:08.498Z,6.50
2024-03-25T15:02:40.158Z,16.60
2024-03-25T15:05:12.120Z,8.70
2024-03-25T15:07:43.714Z,8.90
2024-03-25T15:10:15.238Z,18.20
2024-03-25T15:12:48.427Z,8.70
2024-03-25T15:15:20.161Z,6.50
2024-03-25T15:17:51.908Z,7.90
2024-03-25T15:20:23.598Z,15.60
2024-03-25T15:22:56.694Z,9.70
2024-03-25T15:25:28.750Z,9.30
2024-03-25T15:28:00.212Z,8.50
2024-03-25T15:30:32.785Z,8.80
2024-03-25T15:33:04.575Z,8.00
2024-03-25T15:35:36.111Z,11.00
2024-03-25T15:38:08.272Z,7.00
2024-03-25T15:40:39.826Z,12.60
2024-03-25T15:43:11.382Z,13.40
2024-03-25T15:45:42.958Z,12.00
2024-03-25T15:48:14.555Z,7.10
2024-03-25T15:50:47.277Z,8.40
2024-03-25T15:53:19.037Z,8.10
2024-03-25T15:55:52.281Z,7.80
2024-03-25T15:58:23.791Z,6.70
2024-03-25T16:03:26.819Z,8.80
2024-03-25T16:05:58.449Z,7.30
2024-03-25T16:11:00.540Z,6.40
2024-03-25T16:13:33.542Z,5.60
2024-03-25T16:16:08.132Z,5.80
2024-03-25T16:18:40.116Z,5.20
2024-03-25T16:21:19.652Z,7.10
2024-03-25T16:23:51.276Z,7.90
2024-03-25T16:26:24.734Z,10.20
2024-03-25T16:28:56.192Z,6.90
2024-03-25T16:31:27.538Z,7.60
2024-03-25T16:33:59.720Z,6.30
2024-03-25T16:36:31.242Z,7.20
2024-03-25T16:39:04.723Z,5.90
2024-03-25T16:41:36.095Z,7.90
2024-03-25T16:44:07.587Z,9.50
2024-03-25T16:46:38.974Z,11.10
2024-03-25T16:49:10.358Z,14.50
2024-03-25T16:51:41.736Z,27.70
2024-03-25T16:54:13.170Z,22.60
2024-03-25T16:56:44.516Z,21.60
2024-03-25T16:59:15.874Z,21.70
2024-03-25T17:01:48.057Z,26.10
2024-03-25T17:04:19.797Z,46.40
2024-03-25T17:06:51.195Z,39.70
2024-03-25T17:09:22.585Z,61.10
2024-03-25T17:11:54.138Z,28.60
2024-03-25T17:14:26.027Z,40.00
2024-03-25T17:17:21.523Z,37.60
2024-03-25T17:19:49.492Z,27.70
2024-03-25T17:22:20.776Z,33.20
2024-03-25T17:24:53.812Z,36.80
2024-03-25T17:27:25.584Z,46.10
2024-03-25T17:29:57.392Z,48.90
2024-03-25T17:32:28.848Z,40.40
2024-03-25T17:35:00.262Z,30.00
2024-03-25T17:37:32.237Z,31.80
2024-03-25T17:40:05.217Z,113.30
2024-03-25T17:42:36.521Z,51.30
2024-03-25T17:45:08.897Z,36.80
2024-03-25T17:47:40.218Z,40.10
2024-03-25T17:50:12.823Z,31.80
2024-03-25T17:52:44.520Z,30.60
2024-03-25T17:57:45.751Z,33.90
2024-03-25T18:00:17.652Z,39.10
2024-03-25T18:02:49.888Z,37.10
2024-03-25T18:05:21.314Z,39.50
2024-03-25T18:07:53.431Z,34.40
2024-03-25T18:10:24.834Z,41.10
2024-03-25T18:12:56.222Z,47.80
2024-03-25T18:15:28.000Z,38.60
2024-03-25T18:17:59.516Z,36.20
2024-03-25T18:20:30.854Z,33.40
2024-03-25T18:23:02.198Z,31.00
2024-03-25T18:25:33.700Z,37.10
2024-03-25T18:28:05.680Z,37.30
2024-03-25T18:30:37.427Z,48.20
2024-03-25T18:35:41.050Z,38.10
2024-03-25T18:38:12.544Z,32.80
2024-03-25T18:40:44.457Z,32.40
2024-03-25T18:43:15.884Z,31.30
2024-03-25T18:45:47.235Z,29.20
2024-03-25T18:48:19.182Z,31.30
2024-03-25T18:50:50.579Z,31.80
2024-03-25T18:53:21.944Z,33.20
2024-03-25T18:55:53.316Z,43.40
2024-03-25T18:58:24.640Z,47.20
2024-03-25T19:00:55.966Z,48.70
2024-03-25T19:03:27.324Z,49.70
2024-03-25T19:05:58.713Z,40.10
2024-03-25T19:08:30.072Z,44.90
2024-03-25T19:11:01.470Z,49.40
2024-03-25T19:13:34.162Z,43.10
2024-03-25T19:16:06.520Z,47.10
2024-03-25T19:18:37.825Z,43.10
2024-03-25T19:21:09.183Z,30.10
2024-03-25T19:23:40.639Z,26.90
2024-03-25T19:26:12.112Z,25.10
2024-03-25T19:28:43.469Z,26.90
2024-03-25T19:31:14.835Z,28.50
2024-03-25T19:33:46.482Z,31.60
2024-03-25T19:36:17.860Z,31.20
2024-03-25T19:38:49.185Z,31.40
2024-03-25T19:41:21.378Z,29.80
2024-03-25T19:43:55.018Z,28.80
2024-03-25T19:46:26.374Z,28.40
2024-03-25T19:48:57.670Z,29.50
2024-03-25T19:51:29.086Z,29.10
2024-03-25T19:54:00.483Z,32.80
2024-03-25T19:56:31.848Z,35.10
2024-03-25T19:59:03.143Z,34.20
2024-03-25T20:01:35.034Z,37.90
2024-03-25T20:04:06.787Z,36.90
2024-03-25T20:09:08.009Z,34.80
2024-03-25T20:11:39.608Z,31.10
2024-03-25T20:14:10.924Z,27.90
2024-03-25T20:16:42.744Z,29.90
2024-03-25T20:19:14.887Z,29.30
2024-03-25T20:21:46.273Z,41.70
2024-03-25T20:24:17.622Z,39.10
2024-03-25T20:26:48.974Z,40.50
2024-03-25T20:29:20.509Z,35.10
2024-03-25T20:31:52.996Z,35.40
2024-03-25T20:34:24.355Z,35.80
2024-03-25T20:36:55.745Z,30.40
2024-03-25T20:39:27.096Z,31.00
2024-03-25T20:41:58.479Z,32.10
2024-03-25T20:44:29.841Z,28.70
2024-03-25T20:47:01.163Z,32.60
2024-03-25T20:49:32.489Z,41.00
2024-03-25T20:52:03.810Z,38.00
2024-03-25T20:54:35.303Z,43.00
2024-03-25T20:57:07.304Z,36.80
2024-03-25T20:59:38.767Z,38.40
2024-03-25T21:02:10.092Z,35.00
2024-03-25T21:04:41.797Z,29.30
2024-03-25T21:09:42.977Z,28.70
2024-03-25T21:12:15.708Z,31.30
2024-03-25T21:14:47.083Z,30.60
2024-03-25T21:17:19.051Z,26.20
2024-03-25T21:19:50.362Z,27.50
2024-03-25T21:22:23.136Z,28.70
2024-03-25T21:24:54.421Z,29.30
2024-03-25T21:27:25.768Z,28.10
2024-03-25T21:29:57.046Z,27.00
2024-03-25T21:34:59.030Z,27.30
2024-03-25T21:37:30.397Z,33.10
2024-03-25T21:40:01.865Z,29.60
2024-03-25T21:42:33.595Z,29.90
2024-03-25T21:47:35.025Z,26.00
2024-03-25T21:50:07.189Z,27.90
2024-03-25T21:52:38.559Z,32.90
2024-03-25T21:55:10.736Z,32.00
2024-03-25T21:57:42.135Z,31.00
2024-03-25T22:00:16.289Z,28.40
2024-03-25T22:02:47.681Z,28.00
2024-03-25T22:05:19.182Z,28.40
2024-03-25T22:07:50.632Z,28.60
2024-03-25T22:10:21.979Z,26.30
2024-03-25T22:12:53.311Z,30.70
2024-03-25T22:15:24.647Z,29.40
2024-03-25T22:17:56.348Z,31.50
2024-03-25T22:22:57.682Z,28.20
2024-03-25T22:25:29.017Z,32.40
2024-03-25T22:28:00.397Z,30.60
2024-03-25T22:30:31.807Z,38.40
2024-03-25T22:33:03.182Z,29.90
2024-03-25T22:35:34.491Z,26.60
2024-03-25T22:38:06.064Z,28.30
2024-03-25T22:40:40.021Z,26.00
2024-03-25T22:43:11.401Z,30.20
2024-03-25T22:45:42.790Z,29.00
2024-03-25T22:48:14.164Z,24.50
2024-03-25T22:50:56.266Z,26.80
2024-03-25T22:53:28.788Z,26.30
2024-03-25T22:56:06.115Z,25.10
2024-03-25T22:58:38.420Z,25.70
2024-03-25T23:01:11.617Z,29.40
2024-03-25T23:03:42.973Z,30.80
2024-03-25T23:06:14.247Z,22.50
2024-03-25T23:08:45.630Z,23.60
2024-03-25T23:11:17.061Z,24.60
2024-03-25T23:13:48.382Z,23.40
2024-03-25T23:16:19.730Z,25.20
2024-03-25T23:18:51.515Z,26.40
2024-03-25T23:23:52.801Z,29.00
2024-03-25T23:26:24.474Z,27.40
2024-03-25T23:28:57.184Z,29.40
2024-03-25T23:31:28.553Z,27.00
2024-03-25T23:33:59.895Z,25.30
2024-03-25T23:36:31.249Z,30.40
2024-03-25T23:39:04.408Z,33.30
2024-03-25T23:41:35.731Z,29.20
2024-03-25T23:44:07.430Z,28.80
2024-03-25T23:46:38.799Z,25.00
2024-03-25T23:49:10.123Z,23.20
2024-03-25T23:51:41.410Z,22.70
2024-03-25T23:54:14.861Z,23.70
2024-03-25T23:56:46.161Z,23.70
2024-03-25T23:59:17.555Z,25.50
